DW5978 Whyalla SA AU current weather conditions

sailwx.info

Last reported at 2015-Sep-04 19:45 UTC.
Time now 2015-Sep-04 21:05 UTC

Location: S 33°01' E 137°32'.
View on Google Maps.

See reports from other nearby stations

  
Tides and Currents Weather Stations Pressure Air Temp Water Temp Dewpoint Dewpoint Depression Visibility Wind Speed Wind Dir Waves Ship Positions
date/time (UTC)wind fromknots sea level pressurealtimeterstation pressurevisibilityair tempwater tempwave heightnotes
2015-Sep-04 19:45
2015-Sep-04 19:30
2015-Sep-04 19:15
2015-Sep-04 19:00 297 1 gusting 1 4.4
2015-Sep-04 18:45 300 0 gusting 2 4.4
2015-Sep-04 18:30 300 0 gusting 1 3.9
2015-Sep-04 18:15 300 0 gusting 1 3.3
2015-Sep-04 18:00 300 3.3
2015-Sep-04 17:45 300 3.9
2015-Sep-04 17:30 300 4.4
2015-Sep-04 17:15 300 5.0
2015-Sep-04 17:00 300 0 gusting 1 5.6
2015-Sep-04 16:45 300 0 gusting 1 5.6
2015-Sep-04 16:15 300 5.0
2015-Sep-04 16:00 300 5.0
2015-Sep-04 15:45 300 0 gusting 1 5.0
2015-Sep-04 15:15 300 4.4
2015-Sep-04 15:00 300 0 gusting 1 5.0
2015-Sep-04 14:45 300 6.1
2015-Sep-04 14:29 300 6.1
2015-Sep-04 14:14 300 6.1
2015-Sep-04 13:59 300 0 gusting 1 6.1
2015-Sep-04 13:44 300 0 gusting 0 6.7
2015-Sep-04 13:29 300 6.7
2015-Sep-04 13:14 300 7.2
2015-Sep-04 12:59 300 7.8
2015-Sep-04 12:44 300 0 gusting 1 7.8
2015-Sep-04 12:29 296 0 gusting 1 7.8
2015-Sep-04 12:14 296 8.3
2015-Sep-04 11:59 294 10.0
2015-Sep-04 11:29 162 11.1
2015-Sep-04 11:14 173 0 gusting 6 11.1
2015-Sep-04 10:59 188 1 gusting 2 11.1
2015-Sep-04 10:44 148 1 gusting 4 11.1
2015-Sep-04 10:30 148 0 gusting 3 11.1
2015-Sep-04 10:15 150 0 gusting 4 11.1
2015-Sep-04 09:59 167 11.1
2015-Sep-04 09:44 172 1 gusting 3 11.1
2015-Sep-04 09:29 160 0 gusting 2 11.7
2015-Sep-04 09:14 156 0 gusting 3 11.7
2015-Sep-04 08:30 145 3 gusting 6 12.8
2015-Sep-04 08:00 145 3 gusting 8 13.3
2015-Sep-04 07:44 103 2 gusting 7 13.3
2015-Sep-04 07:29 176 4 gusting 8 13.9
2015-Sep-04 07:14 124 3 gusting 8 13.9
2015-Sep-04 06:44 120 3 gusting 9 14.4
2015-Sep-04 06:29 159 2 gusting 6 14.4
2015-Sep-04 06:14 154 4 gusting 7 14.4
2015-Sep-04 05:30 112 4 gusting 7 14.4
2015-Sep-04 05:14 123 5 gusting 10 14.4
2015-Sep-04 04:59 167 5 gusting 9 14.4
2015-Sep-04 04:44 118 4 gusting 9 14.4
2015-Sep-04 04:30 096 2 gusting 6 14.4
2015-Sep-04 04:14 240 2 gusting 8 14.4
2015-Sep-04 03:44 150 1 gusting 7 14.4
2015-Sep-04 03:29 156 1 gusting 8 14.4
2015-Sep-04 02:59 103 3 gusting 7 14.4
2015-Sep-04 02:44 098 4 gusting 8 14.4
2015-Sep-04 02:29 156 2 gusting 6 14.4
2015-Sep-04 02:14 070 3 gusting 6 14.4
2015-Sep-04 01:59 165 3 gusting 7 14.4
2015-Sep-04 01:28 099 3 gusting 6 13.9
2015-Sep-04 00:58 146 2 gusting 6 13.3
2015-Sep-04 00:43 136 3 gusting 9 13.3
2015-Sep-04 00:13 218 1 gusting 5 12.8
2015-Sep-03 23:58 136 4 gusting 8 12.2
2015-Sep-03 23:43 204 3 gusting 7 12.2
2015-Sep-03 23:13 137 3 gusting 6 12.2
2015-Sep-03 22:58 153 3 gusting 6 12.2
2015-Sep-03 22:43 221 2 gusting 4 11.7
2015-Sep-03 22:29 271 10.6
2015-Sep-03 21:58 288 0 gusting 3 8.3
2015-Sep-03 21:28
2015-Sep-03 20:58
2015-Sep-03 20:43
2015-Sep-03 20:28
2015-Sep-03 20:13
2015-Sep-03 19:57
2015-Sep-03 19:42
2015-Sep-03 19:12
2015-Sep-03 18:57
2015-Sep-03 18:42
2015-Sep-03 18:12 155 2 gusting 6 11.7
2015-Sep-03 17:57 142 1 gusting 4 11.7
2015-Sep-03 17:27 185 0 gusting 2 11.7
2015-Sep-03 17:12 177 0 gusting 3 11.7
2015-Sep-03 16:57 188 1 gusting 3 11.7
2015-Sep-03 16:12 177 0 gusting 3 11.7
2015-Sep-03 15:42 167 1 gusting 4 12.2
2015-Sep-03 15:27 173 0 gusting 3 12.2
2015-Sep-03 15:12 156 2 gusting 5 12.2
2015-Sep-03 14:57 148 1 gusting 5 12.2
2015-Sep-03 14:42 153 0 gusting 5 12.2
2015-Sep-03 14:27 148 1 gusting 5 12.2
2015-Sep-03 13:42 210 0 gusting 2 12.2
2015-Sep-03 13:27 195 0 12.2
2015-Sep-03 12:41 148 2 gusting 6 12.2
2015-Sep-03 12:26 215 3 gusting 6 12.2
2015-Sep-03 12:11 210 2 gusting 6 12.2
2015-Sep-03 11:56 201 3 gusting 6 12.2
2015-Sep-03 11:41 249 3 gusting 9 12.2
2015-Sep-03 11:11 215 3 gusting 9 12.2
2015-Sep-03 10:56 187 5 gusting 8 12.2
2015-Sep-03 10:41 194 5 gusting 9 12.2
2015-Sep-03 10:26 174 4 gusting 8 12.8
2015-Sep-03 10:11 207 4 gusting 7 12.8
2015-Sep-03 09:56 192 4 gusting 8 13.3
2015-Sep-03 09:26 207 4 gusting 8 13.3
2015-Sep-03 09:11 188 5 gusting 8 13.3
2015-Sep-03 08:56 154 6 gusting 12 13.3
2015-Sep-03 08:26 207 4 gusting 10 13.3
2015-Sep-03 08:11 160 6 gusting 13 13.9
2015-Sep-03 07:56 210 6 gusting 13 13.9
2015-Sep-03 07:41 141 7 gusting 13 13.9
2015-Sep-03 07:26 180 6 gusting 14 14.4
2015-Sep-03 07:11 174 7 gusting 12 14.4
2015-Sep-03 06:56 204 6 gusting 15 14.4
2015-Sep-03 06:41 181 6 gusting 13 14.4
2015-Sep-03 06:26 145 7 gusting 14 14.4
2015-Sep-03 06:11 204 8 gusting 15 14.4
2015-Sep-03 05:56 212 8 gusting 14 15.0
2015-Sep-03 05:41 193 7 gusting 16 15.0
2015-Sep-03 05:26 170 10 gusting 15 15.0
2015-Sep-03 05:11 149 7 gusting 18 15.0
2015-Sep-03 04:41 193 9 gusting 17 14.4
2015-Sep-03 03:56 188 8 gusting 14 15.0
2015-Sep-03 03:26 195 7 gusting 15 15.0
2015-Sep-03 02:56 163 10 gusting 18 15.0
2015-Sep-03 02:40 201 8 gusting 16 14.4
2015-Sep-03 01:40 201 9 gusting 15 13.3
2015-Sep-03 01:10 123 10 gusting 16 12.8
2015-Sep-03 00:40 233 11 gusting 18 13.3
2015-Sep-03 00:25 167 4 gusting 15 12.8
2015-Sep-02 23:40 187 8 gusting 17 12.2
2015-Sep-02 23:10 228 9 gusting 16 12.2
2015-Sep-02 22:55 243 3 gusting 11 12.2
2015-Sep-02 22:40 195 4 gusting 10 12.2
2015-Sep-02 22:25 224 5 gusting 9 12.2
2015-Sep-02 22:10 217 5 gusting 11 11.7
2015-Sep-02 21:55 225 2 gusting 6 10.6
2015-Sep-02 21:39
2015-Sep-02 21:24